createdAt,value
2022-09-28T00:01:57.254Z,8.91
2022-09-28T00:04:25.916Z,8.86
2022-09-28T00:06:55.967Z,8.69
2022-09-28T00:09:24.758Z,8.51
2022-09-28T00:11:53.955Z,8.44
2022-09-28T00:14:23.166Z,8.38
2022-09-28T00:16:51.895Z,8.34
2022-09-28T00:19:20.619Z,8.38
2022-09-28T00:21:49.329Z,8.37
2022-09-28T00:24:24.073Z,8.36
2022-09-28T00:26:58.158Z,8.25
2022-09-28T00:29:28.877Z,8.39
2022-09-28T00:32:00.725Z,8.15
2022-09-28T00:34:32.276Z,8.00
2022-09-28T00:37:01.939Z,7.96
2022-09-28T00:39:32.804Z,7.93
2022-09-28T00:42:01.554Z,8.03
2022-09-28T00:44:41.478Z,8.10
2022-09-28T00:47:26.665Z,8.13
2022-09-28T00:50:00.341Z,8.05
2022-09-28T00:52:33.509Z,7.94
2022-09-28T00:55:08.278Z,7.94
2022-09-28T00:57:39.507Z,7.91
2022-09-28T01:00:10.085Z,7.94
2022-09-28T01:02:38.878Z,7.98
2022-09-28T01:05:11.078Z,7.91
2022-09-28T01:07:40.362Z,7.88
2022-09-28T01:10:11.207Z,7.83
2022-09-28T01:12:40.069Z,7.80
2022-09-28T01:15:09.738Z,7.87
2022-09-28T01:17:51.064Z,7.85
2022-09-28T01:20:52.695Z,7.90
2022-09-28T01:23:51.307Z,7.90
2022-09-28T01:26:52.608Z,7.84
2022-09-28T01:29:33.709Z,7.77
2022-09-28T01:32:12.118Z,7.64
2022-09-28T01:34:46.737Z,7.60
2022-09-28T01:37:21.500Z,7.63
2022-09-28T01:39:53.358Z,7.49
2022-09-28T01:42:26.036Z,7.42
2022-09-28T01:45:03.060Z,7.39
2022-09-28T01:47:38.520Z,7.31
2022-09-28T01:50:13.661Z,7.24
2022-09-28T01:52:50.928Z,7.15
2022-09-28T01:55:29.550Z,7.13
2022-09-28T01:58:03.500Z,7.11
2022-09-28T02:00:38.580Z,7.15
2022-09-28T02:03:11.112Z,7.18
2022-09-28T02:05:54.409Z,7.17
2022-09-28T02:08:28.629Z,7.22
2022-09-28T02:11:04.449Z,7.14
2022-09-28T02:13:36.841Z,7.09
2022-09-28T02:16:15.331Z,7.06
2022-09-28T02:18:45.389Z,6.99
2022-09-28T02:21:24.190Z,7.00
2022-09-28T02:23:59.607Z,7.05
2022-09-28T02:26:33.418Z,6.98
2022-09-28T02:29:02.896Z,6.89
2022-09-28T02:31:33.246Z,6.81
2022-09-28T02:34:02.477Z,6.78
2022-09-28T02:36:31.532Z,6.79
2022-09-28T02:39:01.661Z,6.77
2022-09-28T02:41:49.776Z,6.81
2022-09-28T02:44:48.503Z,6.75
2022-09-28T02:47:28.438Z,6.77
2022-09-28T02:50:09.812Z,6.83
2022-09-28T02:53:01.497Z,6.81
2022-09-28T02:55:50.528Z,6.84
2022-09-28T02:58:33.351Z,6.83
2022-09-28T03:01:12.116Z,6.88
2022-09-28T03:03:49.977Z,6.82
2022-09-28T03:06:25.239Z,6.79
2022-09-28T03:09:01.868Z,6.82
2022-09-28T03:11:39.516Z,6.77
2022-09-28T03:14:11.371Z,6.78
2022-09-28T03:16:51.168Z,6.67
2022-09-28T03:19:30.167Z,6.64
2022-09-28T03:21:59.611Z,6.59
2022-09-28T03:24:28.189Z,6.56
2022-09-28T03:26:56.806Z,6.50
2022-09-28T03:29:25.590Z,6.48
2022-09-28T03:32:00.299Z,6.39
2022-09-28T03:34:31.063Z,6.30
2022-09-28T03:36:59.781Z,6.31
2022-09-28T03:39:28.710Z,6.32
2022-09-28T03:41:57.478Z,6.37
2022-09-28T03:44:26.197Z,6.35
2022-09-28T03:46:54.899Z,6.45
2022-09-28T03:49:23.658Z,6.41
2022-09-28T03:51:53.819Z,6.37
2022-09-28T03:54:22.533Z,6.44
2022-09-28T03:56:52.341Z,6.48
2022-09-28T03:59:21.181Z,6.42
2022-09-28T04:01:50.674Z,6.43
2022-09-28T04:04:19.778Z,6.51
2022-09-28T04:06:48.411Z,6.57
2022-09-28T04:09:19.000Z,6.53
2022-09-28T04:12:03.382Z,6.57
2022-09-28T04:14:35.041Z,6.61
2022-09-28T04:17:05.793Z,6.60
2022-09-28T04:19:34.611Z,6.70
2022-09-28T04:22:15.337Z,6.81
2022-09-28T04:24:46.669Z,6.87
2022-09-28T04:27:25.287Z,6.90
2022-09-28T04:29:53.969Z,6.86
2022-09-28T04:32:22.578Z,6.78
2022-09-28T04:34:52.881Z,6.78
2022-09-28T04:37:21.762Z,6.71
2022-09-28T04:39:53.628Z,6.71
2022-09-28T04:42:22.410Z,6.71
2022-09-28T04:44:52.504Z,6.73
2022-09-28T04:47:21.245Z,6.79
2022-09-28T04:49:59.717Z,6.83
2022-09-28T04:52:33.751Z,6.89
2022-09-28T04:55:03.852Z,6.94
2022-09-28T04:57:35.488Z,6.97
2022-09-28T05:00:05.570Z,7.04
2022-09-28T05:02:36.488Z,7.10
2022-09-28T05:05:16.450Z,7.13
2022-09-28T05:07:59.768Z,7.20
2022-09-28T05:10:29.966Z,7.23
2022-09-28T05:12:58.739Z,7.25
2022-09-28T05:15:28.657Z,7.29
2022-09-28T05:17:57.520Z,7.34
2022-09-28T05:20:36.051Z,7.36
2022-09-28T05:23:04.759Z,7.52
2022-09-28T05:25:36.922Z,7.60
2022-09-28T05:28:25.476Z,7.65
2022-09-28T05:31:07.060Z,7.69
2022-09-28T05:33:45.784Z,7.75
2022-09-28T05:36:15.517Z,7.82
2022-09-28T05:38:45.217Z,7.90
2022-09-28T05:41:15.640Z,8.01
2022-09-28T05:43:45.850Z,8.07
2022-09-28T05:46:14.822Z,8.02
2022-09-28T05:48:43.817Z,8.09
2022-09-28T05:51:12.484Z,8.11
2022-09-28T05:53:41.178Z,8.16
2022-09-28T05:56:10.876Z,8.18
2022-09-28T05:58:45.658Z,8.24
2022-09-28T06:01:15.218Z,8.39
2022-09-28T06:03:44.077Z,8.49
2022-09-28T06:06:13.096Z,8.56
2022-09-28T06:08:46.499Z,8.60
2022-09-28T06:11:27.210Z,8.65
2022-09-28T06:13:59.569Z,8.72
2022-09-28T06:16:31.600Z,8.80
2022-09-28T06:19:00.424Z,8.88
2022-09-28T06:21:38.516Z,9.05
2022-09-28T06:24:08.605Z,9.08
2022-09-28T06:26:38.621Z,9.19
2022-09-28T06:29:09.709Z,9.28
2022-09-28T06:31:38.357Z,9.37
2022-09-28T06:34:06.985Z,9.49
2022-09-28T06:36:35.647Z,9.59
2022-09-28T06:39:04.492Z,9.67
2022-09-28T06:41:33.452Z,9.75
2022-09-28T06:44:14.610Z,9.80
2022-09-28T06:46:56.105Z,9.89
2022-09-28T06:49:38.481Z,10.09
2022-09-28T06:52:17.990Z,10.18
2022-09-28T06:55:12.859Z,10.24
2022-09-28T06:57:46.226Z,10.32
2022-09-28T07:00:17.159Z,10.41
2022-09-28T07:02:48.197Z,10.55
2022-09-28T07:05:29.291Z,10.73
2022-09-28T07:08:20.690Z,10.86
2022-09-28T07:11:08.369Z,10.99
2022-09-28T07:13:50.949Z,11.02
2022-09-28T07:16:28.690Z,11.11
2022-09-28T07:19:00.922Z,11.23
2022-09-28T07:21:30.664Z,11.31
2022-09-28T07:24:04.357Z,11.40
2022-09-28T07:26:46.049Z,11.57
2022-09-28T07:29:24.521Z,11.52
2022-09-28T07:32:04.723Z,11.64
2022-09-28T07:34:40.149Z,11.67
2022-09-28T07:37:19.172Z,11.80
2022-09-28T07:39:59.143Z,11.95
2022-09-28T07:42:30.341Z,12.07
2022-09-28T07:44:59.614Z,12.22
2022-09-28T07:47:34.658Z,12.28
2022-09-28T07:50:29.711Z,12.45
2022-09-28T07:53:21.733Z,12.56
2022-09-28T07:56:07.553Z,12.62
2022-09-28T07:58:44.436Z,12.73
2022-09-28T08:01:24.213Z,12.75
2022-09-28T08:03:56.614Z,12.90
2022-09-28T08:06:25.655Z,13.00
2022-09-28T08:08:57.122Z,13.04
2022-09-28T08:11:37.046Z,13.26
2022-09-28T08:14:18.019Z,13.38
2022-09-28T08:16:57.676Z,13.18
2022-09-28T08:19:48.329Z,13.29
2022-09-28T08:22:18.983Z,13.49
2022-09-28T08:24:49.263Z,13.68
2022-09-28T08:27:18.532Z,13.81
2022-09-28T08:29:47.215Z,13.83
2022-09-28T08:32:25.892Z,14.00
2022-09-28T08:35:06.964Z,14.16
2022-09-28T08:37:55.636Z,14.35
2022-09-28T08:40:59.729Z,14.57
2022-09-28T08:44:02.276Z,14.64
2022-09-28T08:46:46.022Z,14.65
2022-09-28T08:49:36.793Z,14.66
2022-09-28T08:52:25.233Z,14.72
2022-09-28T08:55:08.897Z,14.77
2022-09-28T08:57:48.336Z,14.89
2022-09-28T09:00:24.370Z,14.99
2022-09-28T09:02:53.358Z,14.94
2022-09-28T09:05:39.083Z,14.99
2022-09-28T09:08:27.701Z,15.07
2022-09-28T09:11:03.642Z,15.16
2022-09-28T09:14:07.842Z,15.21
2022-09-28T09:16:49.858Z,15.31
2022-09-28T09:19:36.809Z,15.45
2022-09-28T09:22:25.229Z,15.56
2022-09-28T09:25:04.748Z,15.59
2022-09-28T09:27:48.059Z,15.61
2022-09-28T09:30:20.530Z,15.75
2022-09-28T09:33:16.072Z,15.64
2022-09-28T09:36:21.389Z,15.70
2022-09-28T09:39:12.033Z,15.74
2022-09-28T09:42:07.140Z,15.88
2022-09-28T09:45:05.281Z,16.06
2022-09-28T09:48:03.120Z,16.17
2022-09-28T09:50:39.601Z,16.23
2022-09-28T09:53:18.030Z,16.17
2022-09-28T09:55:50.852Z,16.13
2022-09-28T09:58:35.529Z,16.24
2022-09-28T10:01:20.500Z,15.96
2022-09-28T10:04:01.424Z,16.08
2022-09-28T10:06:36.022Z,16.19
2022-09-28T10:09:10.220Z,16.20
2022-09-28T10:11:44.811Z,16.25
2022-09-28T10:14:20.262Z,16.14
2022-09-28T10:17:04.970Z,16.03
2022-09-28T10:19:45.503Z,15.94
2022-09-28T10:22:28.760Z,15.93
2022-09-28T10:25:01.313Z,15.98
2022-09-28T10:27:32.736Z,15.93
2022-09-28T10:30:14.938Z,16.12
2022-09-28T10:32:45.322Z,15.99
2022-09-28T10:35:23.584Z,15.98
2022-09-28T10:38:03.486Z,16.07
2022-09-28T10:40:57.109Z,16.26
2022-09-28T10:43:38.682Z,16.58
2022-09-28T10:46:16.940Z,16.74
2022-09-28T10:48:54.061Z,16.80
2022-09-28T10:51:41.766Z,17.09
2022-09-28T10:54:18.550Z,17.28
2022-09-28T10:56:50.932Z,17.31
2022-09-28T10:59:40.684Z,17.61
2022-09-28T11:02:27.319Z,17.34
2022-09-28T11:05:04.483Z,17.17
2022-09-28T11:07:46.830Z,16.88
2022-09-28T11:10:23.298Z,16.77
2022-09-28T11:12:55.255Z,16.74
2022-09-28T11:15:29.861Z,16.66
2022-09-28T11:18:20.146Z,16.66
2022-09-28T11:20:49.907Z,16.61
2022-09-28T11:23:23.616Z,16.55
2022-09-28T11:26:03.274Z,16.55
2022-09-28T11:28:35.233Z,16.58
2022-09-28T11:31:10.499Z,16.59
2022-09-28T11:33:51.845Z,16.54
2022-09-28T11:37:07.015Z,16.53
2022-09-28T11:39:47.566Z,16.50
2022-09-28T11:42:31.057Z,16.56
2022-09-28T11:45:12.758Z,16.62
2022-09-28T11:47:54.337Z,16.58
2022-09-28T11:50:32.546Z,16.57
2022-09-28T11:53:12.275Z,16.49
2022-09-28T11:55:48.181Z,16.56
2022-09-28T11:58:27.127Z,16.54
2022-09-28T12:01:02.567Z,16.47
2022-09-28T12:03:53.101Z,16.37
2022-09-28T12:06:29.200Z,16.36
2022-09-28T12:09:06.844Z,16.33
2022-09-28T12:12:02.190Z,16.31
2022-09-28T12:14:42.859Z,16.30
2022-09-28T12:17:22.315Z,16.32
2022-09-28T12:19:55.948Z,16.35
2022-09-28T12:22:33.761Z,16.49
2022-09-28T12:25:05.239Z,16.59
2022-09-28T12:27:43.307Z,16.64
2022-09-28T12:30:16.630Z,16.62
2022-09-28T12:32:51.042Z,16.57
2022-09-28T12:35:29.283Z,16.52
2022-09-28T12:38:17.463Z,16.44
2022-09-28T12:40:54.735Z,16.45
2022-09-28T12:43:46.830Z,16.44
2022-09-28T12:46:32.012Z,16.40
2022-09-28T12:52:29.557Z,16.38
2022-09-28T12:55:28.533Z,16.28
2022-09-28T12:58:05.954Z,16.19
2022-09-28T13:00:47.965Z,16.16
2022-09-28T13:03:41.423Z,16.07
2022-09-28T13:06:37.448Z,16.03
2022-09-28T13:09:20.394Z,16.01
2022-09-28T13:12:05.913Z,16.11
2022-09-28T13:15:04.173Z,16.21
2022-09-28T13:17:44.748Z,16.30
2022-09-28T13:20:26.543Z,16.34
2022-09-28T13:23:02.802Z,16.35
2022-09-28T13:25:36.526Z,16.36
2022-09-28T13:28:07.859Z,16.31
2022-09-28T13:30:40.494Z,16.32
2022-09-28T13:33:13.796Z,16.33
2022-09-28T13:35:44.483Z,16.30
2022-09-28T13:38:31.972Z,16.20
2022-09-28T13:41:16.477Z,16.14
2022-09-28T13:44:18.140Z,16.09
2022-09-28T13:46:59.807Z,16.03
2022-09-28T13:49:42.614Z,15.91
2022-09-28T13:52:21.785Z,15.96
2022-09-28T13:55:05.025Z,15.95
2022-09-28T13:57:47.808Z,15.92
2022-09-28T14:00:22.344Z,15.94
2022-09-28T14:02:59.094Z,15.90
2022-09-28T14:05:48.748Z,15.92
2022-09-28T14:08:33.886Z,15.89
2022-09-28T14:11:28.278Z,15.90
2022-09-28T14:14:01.329Z,15.91
2022-09-28T14:16:32.654Z,15.91
2022-09-28T14:19:09.047Z,15.91
2022-09-28T14:21:58.724Z,15.93
2022-09-28T14:24:36.008Z,15.91
2022-09-28T14:27:23.799Z,15.88
2022-09-28T14:30:07.070Z,15.91
2022-09-28T14:32:37.733Z,15.92
2022-09-28T14:35:18.560Z,15.95
2022-09-28T14:38:02.429Z,15.96
2022-09-28T14:40:49.760Z,15.95
2022-09-28T14:43:31.120Z,15.90
2022-09-28T14:46:21.722Z,15.88
2022-09-28T14:48:54.019Z,15.85
2022-09-28T14:51:44.446Z,15.81
2022-09-28T14:54:21.560Z,15.75
2022-09-28T14:57:08.267Z,15.75
2022-09-28T14:59:44.065Z,15.77
2022-09-28T15:02:20.966Z,15.72
2022-09-28T15:04:54.037Z,15.71
2022-09-28T15:07:25.199Z,15.70
2022-09-28T15:09:56.876Z,15.68
2022-09-28T15:12:28.915Z,15.67
2022-09-28T15:15:02.741Z,15.68
2022-09-28T15:17:39.478Z,15.67
2022-09-28T15:20:24.761Z,15.69
2022-09-28T15:22:57.829Z,15.70
2022-09-28T15:25:30.435Z,15.70
2022-09-28T15:28:02.667Z,15.75
2022-09-28T15:30:32.598Z,15.73
2022-09-28T15:33:17.418Z,15.74
2022-09-28T15:35:50.547Z,15.69
2022-09-28T15:38:20.206Z,15.69
2022-09-28T15:40:50.430Z,15.67
2022-09-28T15:43:27.318Z,15.64
2022-09-28T15:46:08.018Z,15.59
2022-09-28T15:48:46.740Z,15.54
2022-09-28T15:51:15.576Z,15.46
2022-09-28T15:53:48.637Z,15.52
2022-09-28T15:56:18.889Z,15.45
2022-09-28T15:59:11.627Z,15.42
2022-09-28T16:01:41.584Z,15.38
2022-09-28T16:04:36.876Z,15.34
2022-09-28T16:07:20.718Z,15.31
2022-09-28T16:10:04.861Z,15.28
2022-09-28T16:12:49.147Z,15.22
2022-09-28T16:15:22.158Z,15.16
2022-09-28T16:17:53.939Z,15.15
2022-09-28T16:20:29.599Z,15.12
2022-09-28T16:23:06.088Z,15.07
2022-09-28T16:25:39.196Z,15.01
2022-09-28T16:28:31.362Z,14.99
2022-09-28T16:31:05.947Z,14.97
2022-09-28T16:33:42.789Z,14.70
2022-09-28T16:36:15.009Z,14.94
2022-09-28T16:38:46.027Z,14.91
2022-09-28T16:41:17.738Z,14.91
2022-09-28T16:43:48.336Z,14.94
2022-09-28T16:46:20.043Z,14.94
2022-09-28T16:48:51.474Z,14.95
2022-09-28T16:51:21.877Z,14.94
2022-09-28T16:54:01.351Z,14.93
2022-09-28T16:56:30.519Z,14.90
2022-09-28T16:59:01.550Z,14.89
2022-09-28T17:01:31.543Z,14.89
2022-09-28T17:04:00.348Z,14.89
2022-09-28T17:06:29.433Z,14.90
2022-09-28T17:08:59.349Z,14.89
2022-09-28T17:11:27.977Z,14.89
2022-09-28T17:13:59.179Z,14.85
2022-09-28T17:17:02.342Z,14.78
2022-09-28T17:19:24.553Z,14.72
2022-09-28T17:21:53.710Z,14.68
2022-09-28T17:24:22.491Z,14.67
2022-09-28T17:26:52.721Z,14.59
2022-09-28T17:29:21.992Z,14.66
2022-09-28T17:31:52.308Z,14.58
2022-09-28T17:34:21.451Z,14.49
2022-09-28T17:36:50.203Z,14.50
2022-09-28T17:39:20.388Z,14.53
2022-09-28T17:41:49.202Z,14.57
2022-09-28T17:44:18.205Z,14.62
2022-09-28T17:46:49.990Z,14.64
2022-09-28T17:49:20.059Z,14.64
2022-09-28T17:51:50.532Z,14.65
2022-09-28T17:54:21.020Z,14.64
2022-09-28T17:56:50.218Z,14.58
2022-09-28T17:59:22.310Z,14.65
2022-09-28T18:01:53.937Z,14.64
2022-09-28T18:04:50.049Z,14.63
2022-09-28T18:07:13.347Z,14.61
2022-09-28T18:09:46.147Z,14.60
2022-09-28T18:12:15.520Z,14.56
2022-09-28T18:14:44.361Z,14.52
2022-09-28T18:17:13.423Z,14.52
2022-09-28T18:19:43.620Z,14.52
2022-09-28T18:22:13.047Z,14.54
2022-09-28T18:24:41.788Z,14.55
2022-09-28T18:27:10.647Z,14.59
2022-09-28T18:29:39.501Z,14.61
2022-09-28T18:32:08.217Z,14.63
2022-09-28T18:34:40.509Z,14.63
2022-09-28T18:37:11.909Z,14.62
2022-09-28T18:39:42.279Z,14.62
2022-09-28T18:42:11.869Z,14.64
2022-09-28T18:44:42.209Z,14.65
2022-09-28T18:47:15.724Z,14.60
2022-09-28T18:49:46.711Z,14.50
2022-09-28T18:52:17.268Z,14.61
2022-09-28T18:54:50.567Z,14.62
2022-09-28T18:57:21.483Z,14.60
2022-09-28T18:59:50.576Z,14.57
2022-09-28T19:02:21.069Z,14.52
2022-09-28T19:04:50.013Z,14.48
2022-09-28T19:07:24.313Z,14.42
2022-09-28T19:09:53.524Z,14.30
2022-09-28T19:12:22.411Z,14.37
2022-09-28T19:14:53.147Z,14.29
2022-09-28T19:17:22.013Z,14.28
2022-09-28T19:19:52.151Z,14.30
2022-09-28T19:22:22.320Z,14.36
2022-09-28T19:24:51.131Z,14.37
2022-09-28T19:27:20.054Z,14.39
2022-09-28T19:29:49.080Z,14.39
2022-09-28T19:32:18.041Z,14.40
2022-09-28T19:34:47.461Z,14.45
2022-09-28T19:37:16.621Z,14.43
2022-09-28T19:39:47.202Z,14.44
2022-09-28T19:42:16.414Z,14.36
2022-09-28T19:44:45.731Z,14.44
2022-09-28T19:47:14.581Z,14.42
2022-09-28T19:49:43.734Z,14.37
2022-09-28T19:52:17.277Z,14.35
2022-09-28T19:54:57.088Z,14.29
2022-09-28T19:57:28.966Z,14.33
2022-09-28T20:00:02.410Z,14.29
2022-09-28T20:02:35.240Z,14.24
2022-09-28T20:05:04.634Z,14.18
2022-09-28T20:07:35.228Z,14.16
2022-09-28T20:10:06.393Z,14.11
2022-09-28T20:12:35.450Z,14.08
2022-09-28T20:15:05.511Z,14.11
2022-09-28T20:17:34.321Z,14.16
2022-09-28T20:20:03.218Z,14.19
2022-09-28T20:22:32.344Z,14.18
2022-09-28T20:25:03.080Z,14.13
2022-09-28T20:27:33.113Z,14.19
2022-09-28T20:30:01.781Z,14.16
2022-09-28T20:32:32.943Z,14.21
2022-09-28T20:35:01.642Z,14.10
2022-09-28T20:37:31.369Z,14.13
2022-09-28T20:40:01.459Z,14.09
2022-09-28T20:42:32.245Z,14.17
2022-09-28T20:45:02.344Z,14.18
2022-09-28T20:47:31.221Z,14.20
2022-09-28T20:49:59.915Z,14.22
2022-09-28T20:52:28.540Z,14.18
2022-09-28T20:54:57.172Z,14.15
2022-09-28T20:57:25.852Z,14.14
2022-09-28T20:59:54.931Z,14.17
2022-09-28T21:02:25.363Z,14.16
2022-09-28T21:04:54.316Z,14.09
2022-09-28T21:07:22.930Z,14.08
2022-09-28T21:09:52.214Z,14.04
2022-09-28T21:12:20.931Z,13.96
2022-09-28T21:14:49.661Z,14.04
2022-09-28T21:17:18.293Z,14.04
2022-09-28T21:19:48.753Z,14.05
2022-09-28T21:22:17.343Z,14.04
2022-09-28T21:24:46.033Z,14.03
2022-09-28T21:27:14.692Z,14.01
2022-09-28T21:29:43.702Z,13.96
2022-09-28T21:32:12.401Z,13.99
2022-09-28T21:34:41.102Z,13.97
2022-09-28T21:37:11.044Z,13.96
2022-09-28T21:39:39.666Z,13.95
2022-09-28T21:42:08.484Z,13.93
2022-09-28T21:44:37.206Z,13.93
2022-09-28T21:47:05.924Z,13.93
2022-09-28T21:49:35.295Z,13.87
2022-09-28T21:52:03.974Z,13.93
2022-09-28T21:54:37.534Z,13.93
2022-09-28T21:57:06.268Z,13.92
2022-09-28T21:59:34.843Z,13.93
2022-09-28T22:02:05.215Z,13.91
2022-09-28T22:04:33.986Z,13.90
2022-09-28T22:07:02.548Z,13.90
2022-09-28T22:09:31.313Z,13.83
2022-09-28T22:12:01.364Z,13.93
2022-09-28T22:14:30.026Z,13.90
2022-09-28T22:16:58.669Z,13.89
2022-09-28T22:19:27.455Z,13.90
2022-09-28T22:21:56.062Z,13.87
2022-09-28T22:24:24.884Z,13.84
2022-09-28T22:26:53.522Z,13.75
2022-09-28T22:29:24.365Z,13.79
2022-09-28T22:31:53.064Z,13.77
2022-09-28T22:34:21.692Z,13.80
2022-09-28T22:36:50.745Z,13.83
2022-09-28T22:39:19.434Z,13.83
2022-09-28T22:41:48.202Z,13.83
2022-09-28T22:44:16.855Z,13.83
2022-09-28T22:46:47.596Z,13.86
2022-09-28T22:49:17.067Z,13.86
2022-09-28T22:51:45.702Z,13.88
2022-09-28T22:54:16.633Z,13.87
2022-09-28T22:56:45.615Z,13.87
2022-09-28T22:59:14.179Z,13.87
2022-09-28T23:01:43.111Z,13.88
2022-09-28T23:04:13.415Z,13.89
2022-09-28T23:06:42.065Z,13.88
2022-09-28T23:09:10.875Z,13.87
2022-09-28T23:11:39.505Z,13.86
2022-09-28T23:14:08.482Z,13.84
2022-09-28T23:16:37.173Z,13.84
2022-09-28T23:19:06.016Z,13.82
2022-09-28T23:21:37.633Z,13.84
2022-09-28T23:24:06.393Z,13.85
2022-09-28T23:26:37.307Z,13.86
2022-09-28T23:29:06.323Z,13.87
2022-09-28T23:31:35.977Z,13.84
2022-09-28T23:34:05.542Z,13.85
2022-09-28T23:36:36.307Z,13.84
2022-09-28T23:39:05.237Z,13.83
2022-09-28T23:41:33.933Z,13.79
2022-09-28T23:44:02.905Z,13.81
2022-09-28T23:46:32.013Z,13.82
2022-09-28T23:49:00.753Z,13.82
2022-09-28T23:51:29.834Z,13.84
2022-09-28T23:53:59.771Z,13.85
2022-09-28T23:56:28.447Z,13.85
2022-09-28T23:58:57.009Z,13.84
